Date,TemperatureHighF,TemperatureAvgF,TemperatureLowF,DewpointHighF,DewpointAvgF,DewpointLowF,HumidityHigh,HumidityAvg,HumidityLow,PressureMaxIn,PressureMinIn,WindSpeedMaxMPH,WindSpeedAvgMPH,GustSpeedMaxMPH,PrecipitationSumIn
2013-3-1,32,29,26,32,29,26,100,100,100,20.00,19.99,10,4,18,0.00
2013-3-2,29,26,21,29,26,21,100,100,100,19.99,19.99,10,4,16,0.00
2013-3-3,26,22,19,26,22,19,100,100,100,19.99,19.99,17,7,21,0.00
2013-3-4,28,22,19,28,22,19,100,100,100,19.99,19.99,14,8,34,0.00
2013-3-5,36,27,21,36,27,21,100,100,100,19.99,19.99,11,5,22,0.00
2013-3-6,31,29,26,31,29,26,100,100,100,19.99,19.99,17,4,26,0.00
2013-3-7,33,28,26,33,28,26,100,100,100,20.00,19.99,10,4,15,0.00
2013-3-8,36,29,24,36,29,24,100,100,100,19.99,19.99,17,6,20,0.00
2013-3-9,46,34,23,46,34,23,100,100,100,19.99,19.99,9,5,15,0.00
2013-3-10,46,37,27,46,37,27,100,100,100,0.00,40.00,12,2,18,0.00
2013-3-11,39,36,30,39,36,30,100,100,100,20.00,19.99,14,3,18,0.00
2013-3-12,44,40,33,44,40,33,100,100,100,19.99,19.99,18,6,26,0.00
2013-3-13,38,33,29,38,33,29,100,100,100,19.99,19.99,13,4,23,0.00
2013-3-14,29,21,13,29,21,13,100,100,100,19.99,19.99,21,7,28,0.00
2013-3-15,30,21,10,30,21,10,100,100,100,19.99,19.99,22,8,28,0.00
2013-3-16,28,22,16,28,22,16,100,100,100,19.99,19.99,14,4,23,0.00
2013-3-17,26,19,13,26,19,13,100,100,100,19.99,19.99,17,6,26,0.00
2013-3-18,29,20,9,29,20,9,100,100,100,19.99,19.99,15,2,21,0.00
2013-3-19,27,24,22,27,24,22,100,100,100,19.99,19.99,9,2,21,0.00
2013-3-20,30,23,19,30,23,19,100,100,100,19.99,19.99,17,8,27,0.00
2013-3-21,33,24,17,33,24,17,100,100,100,19.99,19.99,11,4,19,0.00
2013-3-22,31,23,16,31,23,16,100,100,100,20.00,20.00,11,5,23,0.00
2013-3-23,34,27,21,34,27,21,100,100,100,20.00,20.00,23,9,39,0.00
2013-3-24,37,30,25,37,30,25,100,100,100,20.00,20.00,12,4,20,0.00
2013-3-25,37,31,24,37,31,24,100,100,100,19.99,19.99,11,2,17,0.00
2013-3-26,41,32,27,41,32,27,100,100,100,19.99,19.99,9,4,19,0.00
2013-3-27,42,34,27,42,34,27,100,100,100,20.00,19.99,12,4,21,0.00
2013-3-28,41,35,30,41,35,30,100,100,100,20.00,19.99,13,4,21,0.00
2013-3-29,43,37,32,43,37,32,100,100,100,19.99,19.99,14,5,21,0.00
2013-3-30,33,31,30,33,31,30,100,100,100,19.99,19.99,4,2,10,0.00
2013-3-31,48,38,29,48,38,29,100,100,100,19.99,19.99,13,3,22,0.00